Time;durP1;ratioP1;P1;durP2;ratioP2;P2;SDS_P1;SDS_P2;PMS_P1;PMS_P2;Temp;Humidity;BMP_temperature;BMP_pressure;BME280_temperature;BME280_humidity;BME280_pressure;Samples;Min_cycle;Max_cycle;Signal;HPM_P1;HPM_P2
2024/03/04 00:00:40;;;;;;;36.78;20.17;;;205.10;2252.80;;;;;;5091251;28;20040;-84
2024/03/04 00:03:07;;;;;;;33.80;19.13;;;205.30;2252.80;;;;;;5075817;28;20039;-81
2024/03/04 00:05:35;;;;;;;34.88;18.83;;;205.20;2252.80;;;;;;5095722;28;20024;-82
2024/03/04 00:08:02;;;;;;;33.00;17.70;;;205.10;2252.80;;;;;;5094694;28;20379;-80
2024/03/04 00:10:29;;;;;;;35.22;17.20;;;205.10;2252.80;;;;;;5095711;28;20047;-82
2024/03/04 00:12:55;;;;;;;30.92;17.58;;;205.00;2252.80;;;;;;5087220;28;20070;-82
2024/03/04 00:15:23;;;;;;;35.60;17.70;;;205.00;2252.80;;;;;;5091296;28;20031;-82
2024/03/04 00:17:50;;;;;;;38.05;18.10;;;205.00;2252.80;;;;;;5078559;28;20031;-84
2024/03/04 00:20:44;;;;;;;34.80;17.65;;;205.00;2252.80;;;;;;5076247;28;20074;-83
2024/03/04 00:23:10;;;;;;;32.83;19.10;;;204.90;2252.80;;;;;;5096071;28;20047;-84
2024/03/04 00:25:36;;;;;;;36.00;18.95;;;204.80;2252.80;;;;;;5095824;28;20441;-78
2024/03/04 00:28:03;;;;;;;36.60;18.92;;;;;;;;;;5095890;28;20039;-83
2024/03/04 00:30:29;;;;;;;36.35;19.00;;;;;;;;;;5083291;28;20012;-84
2024/03/04 00:32:56;;;;;;;37.45;18.55;;;;;;;;;;5088691;28;20044;-83
2024/03/04 00:35:22;;;;;;;33.92;18.00;;;;;;;;;;5080160;28;20020;-83
2024/03/04 00:37:48;;;;;;;33.75;18.60;;;;;;;;;;5094618;28;20378;-84
2024/03/04 00:40:15;;;;;;;32.40;18.05;;;;;;;;;;5091147;28;20017;-84
2024/03/04 00:42:41;;;;;;;33.83;17.73;;;;;;;;;;5083126;28;20091;-81
2024/03/04 00:45:07;;;;;;;38.97;19.33;;;205.40;2252.80;;;;;;5084594;28;20035;-84
2024/03/04 00:47:33;;;;;;;39.55;18.73;;;205.30;2252.80;;;;;;5089060;28;20080;-84
2024/03/04 00:49:59;;;;;;;36.67;19.52;;;205.20;2252.80;;;;;;5075260;28;20056;-84
2024/03/04 00:52:25;;;;;;;39.95;19.55;;;205.20;2252.80;;;;;;5088978;28;20071;-83
2024/03/04 00:54:51;;;;;;;36.95;18.10;;;205.10;2252.80;;;;;;5091126;28;20464;-84
2024/03/04 00:57:17;;;;;;;37.58;18.27;;;205.00;2252.80;;;;;;5086425;28;20095;-83
2024/03/04 00:59:43;;;;;;;33.35;17.42;;;205.00;2252.80;;;;;;5094114;28;20033;-81
2024/03/04 01:02:10;;;;;;;39.50;18.77;;;205.00;2252.80;;;;;;5094703;28;20507;-83
2024/03/04 01:04:36;;;;;;;34.95;18.95;;;205.00;2252.80;;;;;;5096586;28;20060;-76
2024/03/04 01:07:01;;;;;;;37.00;19.20;;;204.90;2252.80;;;;;;5095094;28;20101;-83
2024/03/04 01:09:27;;;;;;;35.00;19.45;;;204.80;2252.80;;;;;;5095032;28;20024;-84
2024/03/04 01:11:53;;;;;;;32.08;18.45;;;204.90;2252.80;;;;;;5095494;28;20020;-80
2024/03/04 01:14:19;;;;;;;31.30;18.45;;;180.10;2252.80;;;;;;5095311;28;20024;-83
2024/03/04 01:16:49;;;;;;;35.97;19.05;;;180.00;2252.80;;;;;;5083626;28;20031;-80
2024/03/04 01:19:15;;;;;;;33.38;18.48;;;179.90;2252.80;;;;;;5093965;28;20019;-84
2024/03/04 01:21:41;;;;;;;37.63;19.33;;;;;;;;;;5088990;28;20056;-84
2024/03/04 01:24:07;;;;;;;34.83;18.95;;;180.00;2252.80;;;;;;5094502;28;20059;-81
2024/03/04 01:26:34;;;;;;;37.13;19.25;;;179.60;2252.80;;;;;;5104916;28;20443;-83
2024/03/04 01:28:59;;;;;;;42.58;20.20;;;179.60;2252.80;;;;;;5091223;28;20016;-82
2024/03/04 01:31:25;;;;;;;37.03;18.52;;;179.60;2252.80;;;;;;5090375;28;20094;-84
2024/03/04 01:33:51;;;;;;;36.72;19.52;;;179.60;2252.80;;;;;;5083385;28;20027;-82
2024/03/04 01:36:20;;;;;;;37.78;19.20;;;;;;;;;;5091815;28;20455;-84
2024/03/04 01:38:46;;;;;;;37.13;18.15;;;179.90;2252.80;;;;;;5094047;28;20030;-82
2024/03/04 01:41:11;;;;;;;34.58;18.98;;;179.70;2252.80;;;;;;5095101;28;20027;-83
2024/03/04 01:43:38;;;;;;;36.45;18.45;;;180.00;2252.80;;;;;;5095168;28;20556;-84
2024/03/04 01:46:03;;;;;;;33.15;17.85;;;179.80;2252.80;;;;;;5094772;28;20024;-84
2024/03/04 01:48:30;;;;;;;41.00;20.10;;;179.80;2252.80;;;;;;5094016;28;20173;-84
2024/03/04 01:50:57;;;;;;;35.08;19.13;;;179.80;2252.80;;;;;;5095341;28;20409;-83
2024/03/04 01:53:24;;;;;;;34.03;18.33;;;179.70;2252.80;;;;;;5084450;28;20032;-84
2024/03/04 01:56:02;;;;;;;37.15;19.67;;;179.60;2252.80;;;;;;5097428;28;20031;-84
2024/03/04 01:58:30;;;;;;;44.53;19.33;;;179.50;2252.80;;;;;;5094203;28;20157;-83
2024/03/04 02:00:59;;;;;;;46.08;25.50;;;179.50;2252.80;;;;;;5076111;28;20056;-83
2024/03/04 02:03:26;;;;;;;53.03;25.80;;;179.70;2252.80;;;;;;5094320;28;20031;-82
2024/03/04 02:05:54;;;;;;;47.65;24.45;;;179.70;2252.80;;;;;;5082015;28;20030;-84
2024/03/04 02:08:20;;;;;;;43.17;21.67;;;179.60;2252.80;;;;;;5089800;28;20024;-83
2024/03/04 02:10:49;;;;;;;38.22;19.58;;;179.50;2252.80;;;;;;5094166;28;20059;-84
2024/03/04 02:13:16;;;;;;;39.25;19.92;;;179.50;2252.80;;;;;;5091917;28;20414;-79
2024/03/04 02:15:41;;;;;;;36.15;20.10;;;179.40;2252.80;;;;;;5094075;28;20020;-83
2024/03/04 02:18:08;;;;;;;56.42;28.35;;;179.50;2252.80;;;;;;5093764;28;20051;-83
2024/03/04 02:20:43;;;;;;;52.78;27.27;;;179.40;2252.80;;;;;;5093298;28;20020;-83
2024/03/04 02:23:12;;;;;;;49.72;24.33;;;;;;;;;;5093868;28;20028;-84
2024/03/04 02:25:38;;;;;;;44.17;22.95;;;;;;;;;;5108419;28;20020;-84
2024/03/04 02:28:06;;;;;;;42.05;21.73;;;;;;;;;;5113910;28;20084;-85
2024/03/04 02:30:33;;;;;;;44.13;21.48;;;;;;;;;;5114268;28;20011;-83
2024/03/04 02:32:59;;;;;;;41.88;20.95;;;;;;;;;;5114240;28;20382;-83
2024/03/04 02:35:27;;;;;;;44.67;21.35;;;;;;;;;;5113896;28;20028;-81
2024/03/04 02:37:54;;;;;;;43.25;21.00;;;;;;;;;;5113979;28;20478;-81
2024/03/04 02:40:20;;;;;;;38.08;20.67;;;;;;;;;;5113995;28;20498;-83
2024/03/04 02:42:46;;;;;;;39.45;20.88;;;;;;;;;;5105481;28;20082;-82
2024/03/04 02:45:12;;;;;;;39.65;20.35;;;;;;;;;;5092448;28;20028;-83
2024/03/04 02:47:38;;;;;;;41.13;20.52;;;;;;;;;;5093398;28;20090;-83
2024/03/04 02:50:07;;;;;;;47.20;21.30;;;;;;;;;;5096484;28;20414;-82
2024/03/04 02:52:33;;;;;;;43.55;21.33;;;;;;;;;;5111652;28;20047;-80
2024/03/04 02:55:00;;;;;;;40.05;21.13;;;;;;;;;;5116417;28;20120;-82
2024/03/04 02:57:26;;;;;;;47.20;21.75;;;;;;;;;;5118652;28;20466;-81
2024/03/04 02:59:52;;;;;;;42.47;21.55;;;;;;;;;;5119087;28;20015;-79
2024/03/04 03:02:18;;;;;;;58.92;26.50;;;;;;;;;;5118124;28;20059;-82
2024/03/04 03:04:44;;;;;;;65.03;29.52;;;;;;;;;;5117462;28;20043;-82
2024/03/04 03:07:15;;;;;;;42.13;21.25;;;;;;;;;;5100103;28;20379;-81
2024/03/04 03:09:41;;;;;;;41.00;20.65;;;;;;;;;;5099913;28;20028;-83
2024/03/04 03:12:07;;;;;;;43.30;22.48;;;128.80;2252.80;;;;;;5118144;28;20027;-82
2024/03/04 03:14:36;;;;;;;46.08;22.63;;;128.60;2252.80;;;;;;5117933;28;20389;-82
2024/03/04 03:17:02;;;;;;;45.03;22.27;;;128.60;2252.80;;;;;;5117597;28;20043;-80
2024/03/04 03:19:28;;;;;;;43.33;20.88;;;;;;;;;;5117566;28;20467;-80
2024/03/04 03:21:55;;;;;;;45.42;22.40;;;;;;;;;;5117064;28;20024;-82
2024/03/04 03:24:23;;;;;;;45.30;21.92;;;;;;;;;;5117558;28;20039;-82
2024/03/04 03:26:49;;;;;;;44.17;22.60;;;;;;;;;;5117588;28;20023;-81
2024/03/04 03:29:16;;;;;;;47.42;20.58;;;;;;;;;;5117409;28;20417;-83
2024/03/04 03:31:42;;;;;;;43.28;22.35;;;;;;;;;;5099756;28;20432;-83
2024/03/04 03:34:08;;;;;;;46.50;23.25;;;;;;;;;;5094941;28;20028;-82
2024/03/04 03:36:38;;;;;;;57.30;26.05;;;;;;;;;;5097125;28;20524;-82
2024/03/04 03:39:10;;;;;;;89.32;34.40;;;;;;;;;;5094579;28;20016;-81
2024/03/04 03:41:36;;;;;;;61.78;28.00;;;;;;;;;;5097076;28;20024;-83
2024/03/04 03:44:03;;;;;;;73.10;31.38;;;;;;;;;;5099381;28;20031;-83
2024/03/04 03:46:29;;;;;;;83.35;35.03;;;;;;;;;;5118057;28;20031;-82
2024/03/04 03:48:55;;;;;;;85.35;34.72;;;;;;;;;;5118393;28;20035;-79
2024/03/04 03:51:21;;;;;;;70.30;31.42;;;;;;;;;;5118126;28;20020;-79
2024/03/04 03:53:47;;;;;;;55.95;26.17;;;;;;;;;;5119039;28;20031;-83
2024/03/04 03:56:13;;;;;;;65.07;29.30;;;;;;;;;;5118607;28;20375;-83
2024/03/04 03:58:39;;;;;;;61.42;27.23;;;;;;;;;;5115115;28;20034;-82
2024/03/04 04:01:05;;;;;;;56.90;27.27;;;;;;;;;;5097737;28;20047;-82
2024/03/04 04:03:33;;;;;;;64.05;28.45;;;;;;;;;;5097342;28;20479;-80
2024/03/04 04:06:00;;;;;;;61.03;28.52;;;;;;;;;;5097762;28;20044;-83
2024/03/04 04:08:27;;;;;;;68.38;29.05;;;;;;;;;;5096927;28;20030;-78
2024/03/04 04:10:54;;;;;;;84.82;34.70;;;;;;;;;;5097610;28;20024;-81
2024/03/04 04:13:20;;;;;;;74.22;32.17;;;;;;;;;;5116071;28;20020;-83
2024/03/04 04:15:46;;;;;;;62.80;29.95;;;;;;;;;;5117904;28;20035;-80
2024/03/04 04:18:13;;;;;;;58.45;26.77;;;;;;;;;;5084807;28;20059;-81
2024/03/04 04:20:39;;;;;;;59.45;27.15;;;;;;;;;;5078470;28;20067;-82
2024/03/04 04:23:04;;;;;;;58.85;28.40;;;128.50;2252.80;;;;;;5076141;28;20029;-81
2024/03/04 04:25:31;;;;;;;68.55;32.33;;;128.20;2252.80;;;;;;5076031;28;20154;-83
2024/03/04 04:27:57;;;;;;;72.22;31.25;;;128.10;2252.80;;;;;;5075738;28;20035;-81
2024/03/04 04:30:23;;;;;;;66.85;31.02;;;128.10;2252.80;;;;;;5076107;28;20024;-81
2024/03/04 04:32:48;;;;;;;70.50;31.85;;;128.20;2252.80;;;;;;5075392;28;20017;-78
2024/03/04 04:35:14;;;;;;;72.50;32.20;;;128.20;2252.80;;;;;;5079938;28;20026;-81
2024/03/04 04:37:43;;;;;;;65.35;29.10;;;128.30;2252.80;;;;;;5080937;28;20071;-81
2024/03/04 04:40:09;;;;;;;55.35;27.60;;;128.30;2252.80;;;;;;5076205;28;20075;-83
2024/03/04 04:42:36;;;;;;;62.00;28.42;;;128.30;2252.80;;;;;;5076666;28;20020;-81
2024/03/04 04:45:02;;;;;;;68.90;29.83;;;128.30;2252.80;;;;;;5077041;28;20028;-81
2024/03/04 04:47:29;;;;;;;68.13;29.65;;;128.40;2252.80;;;;;;5077115;28;20095;-82
2024/03/04 04:49:55;;;;;;;64.25;28.55;;;128.30;2252.80;;;;;;5076438;28;20020;-82
2024/03/04 04:52:21;;;;;;;65.28;30.90;;;128.30;2252.80;;;;;;5097308;28;20023;-80
2024/03/04 04:54:48;;;;;;;75.38;33.67;;;128.30;2252.80;;;;;;5109770;28;20060;-83
2024/03/04 04:57:14;;;;;;;81.82;35.90;;;128.30;2252.80;;;;;;5074788;28;20087;-82
2024/03/04 04:59:41;;;;;;;70.10;32.33;;;128.40;2252.80;;;;;;5075468;28;20032;-81
2024/03/04 05:02:07;;;;;;;69.03;31.38;;;128.30;2252.80;;;;;;5074904;28;20051;-83
2024/03/04 05:04:33;;;;;;;59.08;28.17;;;128.30;2252.80;;;;;;5112077;28;20036;-82
2024/03/04 05:06:59;;;;;;;61.67;28.85;;;128.40;2048.00;;;;;;5116075;28;20451;-83
2024/03/04 05:09:25;;;;;;;61.63;29.58;;;128.40;2252.80;;;;;;5115491;28;20015;-80
2024/03/04 05:11:51;;;;;;;71.20;31.77;;;128.30;2099.20;;;;;;5115672;28;20016;-81
2024/03/04 05:14:18;;;;;;;68.30;30.77;;;128.10;2252.80;;;;;;5115833;28;20042;-81
2024/03/04 05:16:44;;;;;;;62.85;29.48;;;128.10;2252.80;;;;;;5115977;28;20094;-82
2024/03/04 05:19:09;;;;;;;63.70;28.35;;;128.20;2252.80;;;;;;5116616;28;20051;-81
2024/03/04 05:21:35;;;;;;;71.10;30.63;;;128.20;2124.80;;;;;;5118179;28;20117;-84
2024/03/04 05:24:01;;;;;;;66.78;29.90;;;128.10;2252.80;;;;;;5118461;28;20031;-84
2024/03/04 05:26:27;;;;;;;64.88;30.13;;;103.30;2227.20;;;;;;5116929;28;20016;-84
2024/03/04 05:28:52;;;;;;;59.55;28.27;;;128.10;2252.80;;;;;;5116619;28;20027;-84
2024/03/04 05:31:18;;;;;;;57.70;26.38;;;128.10;2252.80;;;;;;5094072;28;20024;-83
2024/03/04 05:33:46;;;;;;;69.88;31.23;;;128.30;1971.20;;;;;;5106982;28;20024;-82
2024/03/04 05:36:14;;;;;;;68.93;31.27;;;128.40;2252.80;;;;;;5115938;28;20023;-83
2024/03/04 05:38:40;;;;;;;63.80;31.27;;;128.90;2252.80;;;;;;5115467;28;20023;-82
2024/03/04 05:41:05;;;;;;;67.10;31.23;;;128.70;2252.80;;;;;;5116211;28;20031;-82
2024/03/04 05:43:31;;;;;;;63.33;30.77;;;128.60;2252.80;;;;;;5073789;28;20149;-82
2024/03/04 05:45:57;;;;;;;73.57;31.90;;;128.50;2252.80;;;;;;5092185;28;20060;-82
2024/03/04 05:48:23;;;;;;;69.72;30.70;;;128.60;2252.80;;;;;;5075583;28;20070;-85
2024/03/04 05:50:49;;;;;;;78.72;33.85;;;;;;;;;;5077055;28;20024;-84
2024/03/04 05:53:20;;;;;;;73.40;33.40;;;179.90;2252.80;;;;;;5093959;28;20028;-79
2024/03/04 05:55:46;;;;;;;95.82;41.05;;;;;;;;;;5088796;28;20027;-83
2024/03/04 05:58:12;;;;;;;96.95;40.45;;;256.00;2252.80;;;;;;5093154;28;20028;-81
2024/03/04 06:00:38;;;;;;;86.15;38.58;;;281.80;2278.40;;;;;;5075521;28;20044;-82
2024/03/04 06:03:03;;;;;;;104.70;44.28;;;282.40;2278.40;;;;;;5104383;28;20023;-83
2024/03/04 06:05:29;;;;;;;117.53;49.13;;;282.40;2278.40;;;;;;5108240;28;20531;-83
2024/03/04 06:07:58;;;;;;;114.65;50.70;;;282.20;2278.40;;;;;;5115625;28;20081;-84
2024/03/04 06:10:24;;;;;;;142.93;57.60;;;281.80;2278.40;;;;;;5102278;28;20068;-84
2024/03/04 06:12:50;;;;;;;157.05;68.20;;;256.30;2252.80;;;;;;5111105;28;20020;-85
2024/03/04 06:15:16;;;;;;;170.20;73.93;;;256.40;2252.80;;;;;;5079908;28;20028;-83
2024/03/04 06:17:41;;;;;;;176.48;75.72;;;282.30;2278.40;;;;;;5093202;28;20043;-83
2024/03/04 06:20:09;;;;;;;167.30;73.90;;;;;;;;;;5094706;28;20441;-83
2024/03/04 06:22:36;;;;;;;157.75;70.32;;;;;;;;;;5094628;28;20021;-81
2024/03/04 06:25:02;;;;;;;159.60;71.38;;;307.80;2304.00;;;;;;5094884;28;20086;-82
2024/03/04 06:27:28;;;;;;;162.73;74.90;;;282.50;2278.40;;;;;;5095501;28;20470;-84
2024/03/04 06:29:54;;;;;;;155.95;69.40;;;282.50;2278.40;;;;;;5094845;28;20019;-84
2024/03/04 06:32:20;;;;;;;148.80;66.78;;;308.10;2304.00;;;;;;5093517;28;20391;-85
2024/03/04 06:34:46;;;;;;;131.07;60.25;;;333.60;2329.60;;;;;;5094360;28;20131;-83
2024/03/04 06:37:14;;;;;;;128.70;58.33;;;358.40;2329.60;;;;;;5075252;28;20028;-83
2024/03/04 06:39:39;;;;;;;128.05;58.78;;;359.10;2278.40;;;;;;5090026;28;20015;-82
2024/03/04 06:42:05;;;;;;;127.32;59.13;;;358.70;2329.60;;;;;;5093849;28;20024;-83
2024/03/04 06:44:32;;;;;;;122.28;56.95;;;333.70;2329.60;;;;;;5073713;28;20028;-80
2024/03/04 06:46:57;;;;;;;125.70;57.55;;;333.60;2329.60;;;;;;5100206;28;20020;-84
2024/03/04 06:49:23;;;;;;;119.72;55.83;;;333.30;2329.60;;;;;;5094700;28;20025;-81
2024/03/04 06:51:49;;;;;;;120.55;59.20;;;308.10;2304.00;;;;;;5085721;28;20024;-79
2024/03/04 06:54:15;;;;;;;118.82;59.05;;;307.90;2304.00;;;;;;5094524;28;20024;-83
2024/03/04 06:56:41;;;;;;;127.35;59.33;;;307.30;2304.00;;;;;;5095211;28;20051;-82
2024/03/04 06:59:07;;;;;;;124.07;61.83;;;282.30;2278.40;;;;;;5081090;28;20028;-80
2024/03/04 07:01:33;;;;;;;137.45;68.05;;;281.90;2278.40;;;;;;5090160;28;20040;-79
2024/03/04 07:04:11;;;;;;;148.95;73.60;;;281.90;2278.40;;;;;;5071926;28;20567;-79
2024/03/04 07:06:37;;;;;;;154.80;77.55;;;282.30;2278.40;;;;;;5084597;28;20031;-83
2024/03/04 07:09:03;;;;;;;177.85;88.28;;;282.30;2278.40;;;;;;5103073;28;20016;-84
2024/03/04 07:11:29;;;;;;;145.85;73.55;;;307.20;2304.00;;;;;;5078713;28;20045;-85
2024/03/04 07:13:54;;;;;;;144.93;73.00;;;307.40;2304.00;;;;;;5111389;28;20107;-84
2024/03/04 07:16:20;;;;;;;162.68;83.25;;;307.80;2304.00;;;;;;5097496;28;20035;-83
2024/03/04 07:18:50;;;;;;;161.80;79.35;;;307.70;2304.00;;;;;;5096111;28;20024;-83
2024/03/04 07:21:16;;;;;;;138.27;71.97;;;307.40;2304.00;;;;;;5095778;28;20478;-83
2024/03/04 07:23:43;;;;;;;143.95;73.50;;;282.50;2278.40;;;;;;5094184;28;20077;-82
2024/03/04 07:26:16;;;;;;;144.60;69.88;;;282.20;2278.40;;;;;;5085529;28;20067;-84
2024/03/04 07:28:43;;;;;;;137.55;70.03;;;282.40;2278.40;;;;;;5092078;28;20024;-83
2024/03/04 07:31:10;;;;;;;130.07;66.10;;;307.60;2304.00;;;;;;5092242;28;20020;-83
2024/03/04 07:33:36;;;;;;;128.40;61.75;;;307.50;2304.00;;;;;;5101783;28;20020;-84
2024/03/04 07:36:02;;;;;;;116.68;57.80;;;307.50;2304.00;;;;;;5084474;28;20071;-81
2024/03/04 07:38:43;;;;;;;99.13;50.45;;;308.00;2304.00;;;;;;5090592;28;20024;-82
2024/03/04 07:41:09;;;;;;;100.90;49.03;;;333.00;2329.60;;;;;;5087043;28;20021;-85
2024/03/04 07:43:36;;;;;;;89.93;48.83;;;358.60;2329.60;;;;;;5092211;28;20032;-78
2024/03/04 07:46:02;;;;;;;72.72;39.03;;;384.20;2329.60;;;;;;5105661;28;20043;-83
2024/03/04 07:48:28;;;;;;;55.17;28.50;;;;;;;;;;5130844;28;20019;-81
2024/03/04 07:50:54;;;;;;;50.00;26.17;;;410.00;2176.00;;;;;;5121264;28;20489;-84
2024/03/04 07:53:20;;;;;;;56.10;29.48;;;409.70;2099.20;;;;;;5106959;28;20089;-84
2024/03/04 07:55:46;;;;;;;44.40;25.05;;;384.90;2176.00;;;;;;5086942;28;20047;-75
2024/03/04 07:58:14;;;;;;;54.97;31.23;;;410.20;2048.00;;;;;;5089806;28;20021;-74
2024/03/04 08:00:40;;;;;;;74.95;37.58;;;435.30;1996.80;;;;;;5087935;28;20136;-74
2024/03/04 08:03:06;;;;;;;83.25;41.22;;;435.90;1945.60;;;;;;5094632;28;20131;-73
2024/03/04 08:05:32;;;;;;;113.82;58.28;;;436.10;1868.80;;;;;;5103065;28;20438;-75
2024/03/04 08:08:00;;;;;;;87.35;43.80;;;435.60;1920.00;;;;;;5079010;28;20406;-75
2024/03/04 08:10:26;;;;;;;85.80;43.42;;;410.50;1920.00;;;;;;5092810;28;20036;-73
2024/03/04 08:12:55;;;;;;;72.57;38.33;;;409.60;2022.40;;;;;;5079401;28;20087;-73
2024/03/04 08:15:21;;;;;;;72.70;37.88;;;384.30;2073.60;;;;;;5080891;28;20028;-74
2024/03/04 08:17:47;;;;;;;64.50;34.28;;;359.30;2150.40;;;;;;5094379;28;20099;-73
2024/03/04 08:20:13;;;;;;;64.78;33.40;;;359.10;2227.20;;;;;;5089708;28;20028;-73
2024/03/04 08:22:39;;;;;;;67.28;34.17;;;359.00;2278.40;;;;;;5089089;28;20078;-74
2024/03/04 08:25:06;;;;;;;58.30;31.38;;;359.10;2278.40;;;;;;5093511;28;20134;-75
2024/03/04 08:27:32;;;;;;;56.00;29.85;;;384.50;2227.20;;;;;;5091144;28;20436;-74
2024/03/04 08:29:57;;;;;;;56.78;30.02;;;384.60;2201.60;;;;;;5093719;28;20043;-74
2024/03/04 08:32:23;;;;;;;53.92;30.88;;;384.80;2150.40;;;;;;5093812;28;20024;-72
2024/03/04 08:34:49;;;;;;;64.63;33.28;;;359.30;2201.60;;;;;;5073757;28;20064;-75
2024/03/04 08:37:15;;;;;;;65.13;35.38;;;359.20;2278.40;;;;;;5103866;28;20024;-72
2024/03/04 08:39:41;;;;;;;61.60;31.70;;;359.10;2304.00;;;;;;5089100;28;20024;-72
2024/03/04 08:42:06;;;;;;;56.38;28.40;;;358.90;2278.40;;;;;;5090439;28;20024;-71
2024/03/04 08:44:32;;;;;;;57.90;30.13;;;359.10;2201.60;;;;;;5094125;28;20384;-75
2024/03/04 08:46:59;;;;;;;56.53;30.58;;;359.10;2252.80;;;;;;5094968;28;20028;-74
2024/03/04 08:49:25;;;;;;;60.65;30.35;;;359.00;2252.80;;;;;;5094389;28;20028;-73
2024/03/04 08:51:51;;;;;;;61.20;32.53;;;359.00;2252.80;;;;;;5094588;28;20024;-76
2024/03/04 08:54:17;;;;;;;64.57;33.42;;;359.00;2252.80;;;;;;5093795;28;20111;-74
2024/03/04 08:56:43;;;;;;;66.63;33.05;;;358.90;2278.40;;;;;;5093569;28;20029;-76
2024/03/04 08:59:09;;;;;;;61.67;30.48;;;384.10;2252.80;;;;;;5076500;28;20035;-73
2024/03/04 09:01:41;;;;;;;54.90;28.63;;;359.10;2252.80;;;;;;5095552;28;20123;-75
2024/03/04 09:04:07;;;;;;;56.60;28.45;;;358.80;2252.80;;;;;;5078191;28;20032;-75
2024/03/04 09:06:33;;;;;;;59.95;32.75;;;358.90;2252.80;;;;;;5090557;28;20422;-75
2024/03/04 09:08:59;;;;;;;57.63;28.85;;;358.90;2278.40;;;;;;5075069;28;20059;-75
2024/03/04 09:11:25;;;;;;;50.85;26.65;;;359.20;2227.20;;;;;;5094249;28;20024;-75
2024/03/04 09:13:50;;;;;;;45.80;21.70;;;384.10;2227.20;;;;;;5094384;28;20043;-76
2024/03/04 09:16:16;;;;;;;46.65;24.15;;;384.00;2150.40;;;;;;5093715;28;20032;-75
2024/03/04 09:18:42;;;;;;;39.03;20.45;;;384.30;2150.40;;;;;;5082371;28;20032;-75
2024/03/04 09:21:08;;;;;;;37.13;20.95;;;384.60;2099.20;;;;;;5088627;28;20371;-74
2024/03/04 09:23:34;;;;;;;43.38;22.38;;;409.60;2048.00;;;;;;5092658;28;20031;-74
2024/03/04 09:26:00;;;;;;;45.35;23.55;;;409.80;2048.00;;;;;;5085729;28;20028;-76
2024/03/04 09:28:26;;;;;;;43.53;22.95;;;409.60;2048.00;;;;;;5092169;28;20429;-75
2024/03/04 09:30:52;;;;;;;46.00;23.80;;;410.00;2048.00;;;;;;5077044;28;20082;-73
2024/03/04 09:33:17;;;;;;;44.22;22.98;;;410.10;1996.80;;;;;;5071358;28;20040;-75
2024/03/04 09:35:43;;;;;;;39.47;21.27;;;410.10;2022.40;;;;;;5089295;28;20482;-74
2024/03/04 09:38:09;;;;;;;44.13;22.25;;;410.30;1971.20;;;;;;5091132;28;20016;-75
2024/03/04 09:40:35;;;;;;;43.38;22.65;;;435.50;1920.00;;;;;;5093742;28;20032;-73
2024/03/04 09:43:01;;;;;;;39.20;21.30;;;435.40;1945.60;;;;;;5096768;28;20474;-76
2024/03/04 09:45:28;;;;;;;38.58;18.67;;;435.60;1920.00;;;;;;5078297;28;20050;-75
2024/03/04 09:47:59;;;;;;;32.00;17.58;;;435.30;1868.80;;;;;;5102906;28;20729;-75
2024/03/04 09:50:25;;;;;;;35.05;16.85;;;435.40;1868.80;;;;;;5088974;28;20030;-73
2024/03/04 09:52:54;;;;;;;34.92;17.55;;;;;;;;;;5088830;28;20042;-74
2024/03/04 09:55:20;;;;;;;33.53;16.50;;;461.50;1792.00;;;;;;5085951;28;20093;-73
2024/03/04 09:57:46;;;;;;;34.88;15.98;;;486.40;1766.40;;;;;;5094074;28;20028;-73
2024/03/04 10:00:15;;;;;;;35.65;17.70;;;486.70;1715.20;;;;;;5095383;28;20077;-74
2024/03/04 10:02:41;;;;;;;34.58;17.55;;;461.60;1715.20;;;;;;5114457;28;20390;-74
2024/03/04 10:05:08;;;;;;;31.23;16.42;;;;;;;;;;5114648;28;20423;-75
2024/03/04 10:07:36;;;;;;;29.83;15.63;;;487.30;1689.60;;;;;;5114478;28;20106;-74
2024/03/04 10:10:02;;;;;;;27.50;15.35;;;;;;;;;;5110444;28;20024;-74
2024/03/04 10:12:29;;;;;;;32.55;16.10;;;;;;;;;;5082733;28;20027;-74
2024/03/04 10:14:58;;;;;;;28.00;15.40;;;;;;;;;;5093773;28;20032;-75
2024/03/04 10:17:27;;;;;;;26.92;14.77;;;;;;;;;;5093615;28;20024;-73
2024/03/04 10:20:05;;;;;;;25.08;12.95;;;;;;;;;;5094003;28;20095;-73
2024/03/04 10:22:32;;;;;;;23.92;12.80;;;;;;;;;;5093792;28;20035;-74
2024/03/04 10:25:04;;;;;;;25.45;13.52;;;;;;;;;;5093410;28;20141;-73
2024/03/04 10:27:30;;;;;;;29.38;13.95;;;486.70;1638.40;;;;;;5092025;28;20017;-75
2024/03/04 10:30:11;;;;;;;24.98;14.25;;;486.40;1638.40;;;;;;5093450;28;20110;-74
2024/03/04 10:32:38;;;;;;;27.40;13.82;;;;;;;;;;5092254;28;20069;-74
2024/03/04 10:35:05;;;;;;;29.58;15.30;;;;;;;;;;5100182;28;20057;-74
2024/03/04 10:37:32;;;;;;;28.23;14.65;;;;;;;;;;5107859;28;20059;-75
2024/03/04 10:39:59;;;;;;;28.13;15.10;;;;;;;;;;5093855;28;20112;-75
2024/03/04 10:42:25;;;;;;;28.05;15.18;;;;;;;;;;5091721;28;20499;-74
2024/03/04 10:44:53;;;;;;;32.45;16.10;;;;;;;;;;5101239;28;20058;-75
2024/03/04 10:47:22;;;;;;;33.67;16.10;;;;;;;;;;5111724;28;20094;-74
2024/03/04 10:49:51;;;;;;;31.83;16.20;;;;;;;;;;5079663;28;20041;-74
2024/03/04 10:52:18;;;;;;;28.15;14.68;;;;;;;;;;5073959;28;20043;-74
2024/03/04 10:54:44;;;;;;;61.78;33.08;;;;;;;;;;5075548;28;20063;-75
2024/03/04 10:57:31;;;;;;;30.63;14.75;;;;;;;;;;5092677;28;20417;-74
2024/03/04 11:00:01;;;;;;;31.30;16.58;;;487.10;1587.20;;;;;;5091027;28;20103;-75
2024/03/04 11:02:53;;;;;;;32.28;15.75;;;486.70;1612.80;;;;;;5070794;28;20051;-74
2024/03/04 11:05:23;;;;;;;28.17;16.08;;;512.00;1587.20;;;;;;5059270;28;20099;-75
2024/03/04 11:07:50;;;;;;;30.88;15.15;;;;;;;;;;5066839;28;20021;-74
2024/03/04 11:10:16;;;;;;;28.92;14.00;;;;;;;;;;5070867;28;20027;-73
2024/03/04 11:12:46;;;;;;;30.05;14.02;;;487.00;1561.60;;;;;;5071501;28;20017;-75
2024/03/04 11:15:17;;;;;;;28.98;16.60;;;486.80;1561.60;;;;;;5066033;28;20013;-77
2024/03/04 11:17:49;;;;;;;17.50;8.77;;;487.00;1561.60;;;;;;5076072;28;20047;-75
2024/03/04 11:20:20;;;;;;;22.15;9.80;;;486.70;1561.60;;;;;;5077043;28;20029;-77
2024/03/04 11:22:46;;;;;;;18.65;9.00;;;;;;;;;;5077518;28;20110;-77
2024/03/04 11:25:13;;;;;;;23.67;11.32;;;486.50;1587.20;;;;;;5078282;28;20039;-75
2024/03/04 11:27:40;;;;;;;20.50;10.88;;;486.40;1612.80;;;;;;5077246;28;20020;-73
2024/03/04 11:30:06;;;;;;;19.83;10.07;;;486.60;1612.80;;;;;;5077285;28;20028;-74
2024/03/04 11:32:33;;;;;;;18.90;9.63;;;486.50;1561.60;;;;;;5077444;28;20020;-74
2024/03/04 11:35:04;;;;;;;23.42;10.13;;;486.80;1561.60;;;;;;5078659;28;20020;-72
2024/03/04 11:37:30;;;;;;;28.00;12.45;;;486.60;1587.20;;;;;;5095815;28;20030;-72
2024/03/04 11:39:57;;;;;;;22.30;10.63;;;;;;;;;;5097873;28;20024;-75
2024/03/04 11:42:33;;;;;;;20.80;9.38;;;;;;;;;;5086088;28;20074;-74
2024/03/04 11:45:00;;;;;;;13.82;6.07;;;512.00;1561.60;;;;;;5067315;28;20120;-78
2024/03/04 11:47:32;;;;;;;13.30;5.78;;;487.20;1510.40;;;;;;5093523;28;20020;-73
2024/03/04 11:49:58;;;;;;;13.80;6.80;;;487.20;1510.40;;;;;;5073377;28;20420;-72
2024/03/04 11:52:25;;;;;;;13.95;7.30;;;512.00;1510.40;;;;;;5073075;28;20506;-75
2024/03/04 11:54:54;;;;;;;13.82;6.65;;;487.20;1536.00;;;;;;5069275;28;20017;-77
2024/03/04 11:57:20;;;;;;;16.05;6.22;;;487.20;1484.80;;;;;;5075767;28;20052;-74
2024/03/04 12:00:13;;;;;;;14.43;6.55;;;512.50;1740.80;;;;;;5062509;28;20032;-74
2024/03/04 12:02:40;;;;;;;15.70;6.10;;;512.30;1484.80;;;;;;5073475;28;20402;-78
2024/03/04 12:05:10;;;;;;;12.55;4.75;;;487.30;1484.80;;;;;;5071992;28;20036;-78
2024/03/04 12:07:35;;;;;;;8.57;3.92;;;512.60;1433.60;;;;;;5077697;28;20024;-73
2024/03/04 12:10:05;;;;;;;8.35;3.88;;;537.80;1408.00;;;;;;5092273;28;20514;-79
2024/03/04 12:12:31;;;;;;;10.65;3.88;;;537.90;1382.40;;;;;;5086162;28;20020;-78
2024/03/04 12:14:56;;;;;;;7.20;3.33;;;538.00;1740.80;;;;;;5097048;28;20494;-73
2024/03/04 12:17:25;;;;;;;10.52;3.58;;;537.80;1356.80;;;;;;5096059;28;20081;-76
2024/03/04 12:19:56;;;;;;;8.00;3.80;;;537.70;1356.80;;;;;;5086888;28;20017;-74
2024/03/04 12:22:31;;;;;;;10.80;3.72;;;537.60;1382.40;;;;;;5074658;28;20021;-74
2024/03/04 12:25:06;;;;;;;8.35;3.95;;;512.80;1356.80;;;;;;5074716;28;20037;-76
2024/03/04 12:27:32;;;;;;;8.77;3.80;;;512.60;1382.40;;;;;;5070393;28;20039;-72
2024/03/04 12:30:14;;;;;;;7.68;2.90;;;512.80;1382.40;;;;;;5071637;28;20387;-78
2024/03/04 12:32:41;;;;;;;9.55;3.70;;;512.80;1356.80;;;;;;5057738;28;20037;-71